createdAt,value
2018-07-12T00:02:12.614Z,23.96
2018-07-12T00:04:39.092Z,23.97
2018-07-12T00:07:05.548Z,23.95
2018-07-12T00:09:39.197Z,23.94
2018-07-12T00:12:05.570Z,23.94
2018-07-12T00:14:32.343Z,23.90
2018-07-12T00:16:58.689Z,23.92
2018-07-12T00:19:25.239Z,23.89
2018-07-12T00:21:51.560Z,23.86
2018-07-12T00:24:19.065Z,23.88
2018-07-12T00:26:47.501Z,23.89
2018-07-12T00:29:13.887Z,23.86
2018-07-12T00:31:40.275Z,23.84
2018-07-12T00:34:06.593Z,23.84
2018-07-12T00:36:32.924Z,23.82
2018-07-12T00:38:59.243Z,23.83
2018-07-12T00:41:25.635Z,23.82
2018-07-12T00:43:52.121Z,23.79
2018-07-12T00:46:18.521Z,23.80
2018-07-12T00:48:45.108Z,23.79
2018-07-12T00:51:11.444Z,23.79
2018-07-12T00:53:38.087Z,23.75
2018-07-12T00:56:04.453Z,23.74
2018-07-12T00:58:30.783Z,23.71
2018-07-12T01:01:05.438Z,23.68
2018-07-12T01:03:31.879Z,23.67
2018-07-12T01:05:58.463Z,23.60
2018-07-12T01:08:25.097Z,23.41
2018-07-12T01:10:51.543Z,23.40
2018-07-12T01:13:18.261Z,23.30
2018-07-12T01:15:44.619Z,23.25
2018-07-12T01:18:12.833Z,23.20
2018-07-12T01:20:47.063Z,23.20
2018-07-12T01:23:13.421Z,23.15
2018-07-12T01:25:40.032Z,23.10
2018-07-12T01:28:06.462Z,23.07
2018-07-12T01:30:32.816Z,23.06
2018-07-12T01:32:59.140Z,23.03
2018-07-12T01:35:25.544Z,23.01
2018-07-12T01:37:52.033Z,23.06
2018-07-12T01:40:19.483Z,23.03
2018-07-12T01:42:46.785Z,23.02
2018-07-12T01:45:13.448Z,23.00
2018-07-12T01:47:39.813Z,23.00
2018-07-12T01:50:06.632Z,22.96
2018-07-12T01:52:33.246Z,22.97
2018-07-12T01:54:59.638Z,22.99
2018-07-12T01:57:26.096Z,22.95
2018-07-12T01:59:52.488Z,22.98
2018-07-12T02:02:20.179Z,22.96
2018-07-12T02:04:46.723Z,22.97
2018-07-12T02:07:13.624Z,22.97
2018-07-12T02:09:40.340Z,22.98
2018-07-12T02:12:06.952Z,22.93
2018-07-12T02:14:33.404Z,22.94
2018-07-12T02:17:00.050Z,22.88
2018-07-12T02:19:26.900Z,22.93
2018-07-12T02:21:53.484Z,22.88
2018-07-12T02:24:20.620Z,22.92
2018-07-12T02:26:46.997Z,22.85
2018-07-12T02:29:13.615Z,22.84
2018-07-12T02:31:40.039Z,22.83
2018-07-12T02:34:06.707Z,22.87
2018-07-12T02:36:33.622Z,22.84
2018-07-12T02:39:00.379Z,22.83
2018-07-12T02:41:26.712Z,22.85
2018-07-12T02:43:53.290Z,22.85
2018-07-12T02:46:20.079Z,22.82
2018-07-12T02:48:46.425Z,22.86
2018-07-12T02:51:12.796Z,22.83
2018-07-12T02:53:40.584Z,22.83
2018-07-12T02:56:07.179Z,22.82
2018-07-12T02:58:33.648Z,22.84
2018-07-12T03:01:00.027Z,22.76
2018-07-12T03:03:26.355Z,22.80
2018-07-12T03:05:53.078Z,22.80
2018-07-12T03:08:19.623Z,22.78
2018-07-12T03:10:46.091Z,22.78
2018-07-12T03:13:12.487Z,22.80
2018-07-12T03:15:38.928Z,22.88
2018-07-12T03:18:05.263Z,22.87
2018-07-12T03:20:31.740Z,22.93
2018-07-12T03:22:58.071Z,23.01
2018-07-12T03:25:24.458Z,23.02
2018-07-12T03:27:50.813Z,23.07
2018-07-12T03:30:17.598Z,23.11
2018-07-12T03:32:44.065Z,23.17
2018-07-12T03:35:10.505Z,23.24
2018-07-12T03:37:37.030Z,23.27
2018-07-12T03:40:03.373Z,23.34
2018-07-12T03:42:29.718Z,23.36
2018-07-12T03:44:56.342Z,23.40
2018-07-12T03:47:22.943Z,23.46
2018-07-12T03:49:49.320Z,23.49
2018-07-12T03:52:15.622Z,23.54
2018-07-12T03:54:41.974Z,23.58
2018-07-12T03:57:08.628Z,23.59
2018-07-12T03:59:34.981Z,23.69
2018-07-12T04:02:01.515Z,23.71
2018-07-12T04:04:27.893Z,23.68
2018-07-12T04:06:54.253Z,23.83
2018-07-12T04:09:20.616Z,23.90
2018-07-12T04:11:47.068Z,23.96
2018-07-12T04:14:13.828Z,24.00
2018-07-12T04:16:40.856Z,24.05
2018-07-12T04:19:07.572Z,24.04
2018-07-12T04:21:34.321Z,23.94
2018-07-12T04:24:00.727Z,24.02
2018-07-12T04:26:27.107Z,24.04
2018-07-12T04:28:53.455Z,24.00
2018-07-12T04:31:19.996Z,24.01
2018-07-12T04:33:46.350Z,23.98
2018-07-12T04:36:12.880Z,23.98
2018-07-12T04:38:39.428Z,23.97
2018-07-12T04:41:06.206Z,23.97
2018-07-12T04:43:32.628Z,23.97
2018-07-12T04:45:59.152Z,23.98
2018-07-12T04:48:25.574Z,23.99
2018-07-12T04:50:52.655Z,24.03
2018-07-12T04:53:19.257Z,24.15
2018-07-12T04:55:45.722Z,24.09
2018-07-12T04:58:12.115Z,24.09
2018-07-12T05:00:38.469Z,24.10
2018-07-12T05:03:05.105Z,24.10
2018-07-12T05:05:31.447Z,24.09
2018-07-12T05:07:57.811Z,24.11
2018-07-12T05:10:24.180Z,24.19
2018-07-12T05:12:50.507Z,24.20
2018-07-12T05:15:16.831Z,24.31
2018-07-12T05:17:43.178Z,24.23
2018-07-12T05:20:09.579Z,24.32
2018-07-12T05:22:36.091Z,24.29
2018-07-12T05:25:02.551Z,24.26
2018-07-12T05:27:29.290Z,24.32
2018-07-12T05:29:55.866Z,24.33
2018-07-12T05:32:22.488Z,24.40
2018-07-12T05:34:48.931Z,24.43
2018-07-12T05:37:15.462Z,24.46
2018-07-12T05:39:41.790Z,24.44
2018-07-12T05:42:08.202Z,24.42
2018-07-12T05:44:34.523Z,24.49
2018-07-12T05:47:00.851Z,24.50
2018-07-12T05:49:27.379Z,24.57
2018-07-12T05:51:53.741Z,24.57
2018-07-12T05:54:20.111Z,24.53
2018-07-12T05:56:46.483Z,24.71
2018-07-12T05:59:12.932Z,24.69
2018-07-12T06:01:39.698Z,24.75
2018-07-12T06:04:06.068Z,24.76
2018-07-12T06:06:32.400Z,24.74
2018-07-12T06:08:58.878Z,24.83
2018-07-12T06:11:25.319Z,24.76
2018-07-12T06:13:52.097Z,24.88
2018-07-12T06:16:18.683Z,24.87
2018-07-12T06:18:45.377Z,25.00
2018-07-12T06:21:11.800Z,24.95
2018-07-12T06:23:38.487Z,25.02
2018-07-12T06:26:04.871Z,25.02
2018-07-12T06:28:31.425Z,24.99
2018-07-12T06:30:58.003Z,25.06
2018-07-12T06:33:24.802Z,25.09
2018-07-12T06:35:51.202Z,25.12
2018-07-12T06:38:17.762Z,25.13
2018-07-12T06:40:44.243Z,25.10
2018-07-12T06:43:11.062Z,25.19
2018-07-12T06:45:37.555Z,25.21
2018-07-12T06:48:03.887Z,25.23
2018-07-12T06:50:30.542Z,25.20
2018-07-12T06:52:57.125Z,25.21
2018-07-12T06:55:24.040Z,25.30
2018-07-12T06:57:50.699Z,25.25
2018-07-12T07:00:17.070Z,25.24
2018-07-12T07:02:43.759Z,25.27
2018-07-12T07:05:10.329Z,25.31
2018-07-12T07:07:36.720Z,25.37
2018-07-12T07:10:03.153Z,25.49
2018-07-12T07:12:29.766Z,25.44
2018-07-12T07:14:56.355Z,25.62
2018-07-12T07:17:23.148Z,25.49
2018-07-12T07:19:49.737Z,25.66
2018-07-12T07:22:16.349Z,25.56
2018-07-12T07:24:43.014Z,25.71
2018-07-12T07:27:09.402Z,25.62
2018-07-12T07:29:36.245Z,25.80
2018-07-12T07:32:03.350Z,25.72
2018-07-12T07:34:30.112Z,25.78
2018-07-12T07:36:56.727Z,25.66
2018-07-12T07:39:23.459Z,25.67
2018-07-12T07:41:49.860Z,25.77
2018-07-12T07:44:16.532Z,25.82
2018-07-12T07:46:43.166Z,25.65
2018-07-12T07:49:09.660Z,25.82
2018-07-12T07:51:36.119Z,25.90
2018-07-12T07:54:02.771Z,25.80
2018-07-12T07:56:29.195Z,25.91
2018-07-12T07:58:56.053Z,25.84
2018-07-12T08:01:22.744Z,25.84
2018-07-12T08:03:49.363Z,25.78
2018-07-12T08:06:15.949Z,25.83
2018-07-12T08:08:42.758Z,25.91
2018-07-12T08:11:09.434Z,25.84
2018-07-12T08:13:36.055Z,25.94
2018-07-12T08:16:02.525Z,25.84
2018-07-12T08:18:29.076Z,25.97
2018-07-12T08:20:55.701Z,25.97
2018-07-12T08:23:22.493Z,26.02
2018-07-12T08:25:49.056Z,25.94
2018-07-12T08:28:15.650Z,26.05
2018-07-12T08:30:42.123Z,26.01
2018-07-12T08:33:08.643Z,26.03
2018-07-12T08:35:35.356Z,26.03
2018-07-12T08:38:01.739Z,25.94
2018-07-12T08:40:28.180Z,25.93
2018-07-12T08:42:54.679Z,25.97
2018-07-12T08:45:21.202Z,26.04
2018-07-12T08:47:47.857Z,25.96
2018-07-12T08:50:14.472Z,25.91
2018-07-12T08:52:40.867Z,25.93
2018-07-12T08:55:07.587Z,25.90
2018-07-12T08:57:34.149Z,25.90
2018-07-12T09:00:00.714Z,26.04
2018-07-12T09:02:27.141Z,25.92
2018-07-12T09:04:53.553Z,25.82
2018-07-12T09:07:20.495Z,25.73
2018-07-12T09:09:47.018Z,25.77
2018-07-12T09:12:13.758Z,25.67
2018-07-12T09:14:40.139Z,25.84
2018-07-12T09:17:06.492Z,25.83
2018-07-12T09:19:33.218Z,25.66
2018-07-12T09:21:59.726Z,25.83
2018-07-12T09:24:26.299Z,25.75
2018-07-12T09:26:52.710Z,25.67
2018-07-12T09:29:19.292Z,25.66
2018-07-12T09:31:45.776Z,25.62
2018-07-12T09:34:12.174Z,25.64
2018-07-12T09:36:38.529Z,25.64
2018-07-12T09:39:04.876Z,25.77
2018-07-12T09:41:31.286Z,25.71
2018-07-12T09:43:57.871Z,25.61
2018-07-12T09:46:24.324Z,25.62
2018-07-12T09:48:50.743Z,25.66
2018-07-12T09:51:17.165Z,25.80
2018-07-12T09:53:43.649Z,25.64
2018-07-12T09:56:10.187Z,25.68
2018-07-12T09:58:36.640Z,25.80
2018-07-12T10:01:03.173Z,25.87
2018-07-12T10:03:29.940Z,25.88
2018-07-12T10:05:56.372Z,25.94
2018-07-12T10:08:22.782Z,25.88
2018-07-12T10:10:49.448Z,25.72
2018-07-12T10:13:15.878Z,25.78
2018-07-12T10:15:42.549Z,25.61
2018-07-12T10:18:08.975Z,25.74
2018-07-12T10:20:35.496Z,25.81
2018-07-12T10:23:02.292Z,25.72
2018-07-12T10:25:28.752Z,25.74
2018-07-12T10:27:55.324Z,25.87
2018-07-12T10:30:21.945Z,25.75
2018-07-12T10:32:48.662Z,25.68
2018-07-12T10:35:15.094Z,25.81
2018-07-12T10:37:41.552Z,25.76
2018-07-12T10:40:08.134Z,25.83
2018-07-12T10:42:34.718Z,25.81
2018-07-12T10:45:01.346Z,25.79
2018-07-12T10:47:28.195Z,25.75
2018-07-12T10:49:54.847Z,25.76
2018-07-12T10:52:21.377Z,25.79
2018-07-12T10:54:48.025Z,25.79
2018-07-12T10:57:14.752Z,25.76
2018-07-12T10:59:41.519Z,25.78
2018-07-12T11:02:08.364Z,25.89
2018-07-12T11:04:35.090Z,25.88
2018-07-12T11:07:01.734Z,25.89
2018-07-12T11:09:28.332Z,25.94
2018-07-12T11:11:54.720Z,25.95
2018-07-12T11:14:21.222Z,25.93
2018-07-12T11:16:47.628Z,25.99
2018-07-12T11:19:14.185Z,25.99
2018-07-12T11:21:40.639Z,26.04
2018-07-12T11:24:07.049Z,25.96
2018-07-12T11:26:33.473Z,25.99
2018-07-12T11:28:59.886Z,25.93
2018-07-12T11:31:26.546Z,26.04
2018-07-12T11:33:53.188Z,26.06
2018-07-12T11:36:20.496Z,25.94
2018-07-12T11:38:47.191Z,26.03
2018-07-12T11:41:13.663Z,26.10
2018-07-12T11:43:40.353Z,26.12
2018-07-12T11:46:07.033Z,25.94
2018-07-12T11:48:33.605Z,26.08
2018-07-12T11:51:00.605Z,26.15
2018-07-12T11:53:27.729Z,26.16
2018-07-12T11:55:54.812Z,26.08
2018-07-12T11:58:21.640Z,26.11
2018-07-12T12:00:48.442Z,26.04
2018-07-12T12:03:15.269Z,26.17
2018-07-12T12:05:42.443Z,26.09
2018-07-12T12:08:09.612Z,26.06
2018-07-12T12:10:37.915Z,26.08
2018-07-12T12:13:04.628Z,26.11
2018-07-12T12:15:31.595Z,26.09
2018-07-12T12:17:58.067Z,26.08
2018-07-12T12:20:25.408Z,26.04
2018-07-12T12:22:52.382Z,26.13
2018-07-12T12:25:19.170Z,25.89
2018-07-12T12:27:46.134Z,26.08
2018-07-12T12:30:12.948Z,25.97
2018-07-12T12:32:44.121Z,25.98
2018-07-12T12:35:10.975Z,25.94
2018-07-12T12:37:37.829Z,25.81
2018-07-12T12:40:05.105Z,25.87
2018-07-12T12:42:31.898Z,26.04
2018-07-12T12:44:58.923Z,25.89
2018-07-12T12:47:25.721Z,25.97
2018-07-12T12:49:52.842Z,25.98
2018-07-12T12:52:20.113Z,26.04
2018-07-12T12:54:46.934Z,26.09
2018-07-12T12:57:13.884Z,25.95
2018-07-12T12:59:40.619Z,26.03
2018-07-12T13:02:09.988Z,25.96
2018-07-12T13:04:38.006Z,26.09
2018-07-12T13:07:04.636Z,26.10
2018-07-12T13:09:31.679Z,26.05
2018-07-12T13:11:58.670Z,26.11
2018-07-12T13:14:25.465Z,26.15
2018-07-12T13:16:52.428Z,26.21
2018-07-12T13:19:19.823Z,26.32
2018-07-12T13:21:46.744Z,26.21
2018-07-12T13:24:13.817Z,26.17
2018-07-12T13:26:40.501Z,26.26
2018-07-12T13:29:07.435Z,26.21
2018-07-12T13:31:34.393Z,26.10
2018-07-12T13:34:01.382Z,25.97
2018-07-12T13:36:28.606Z,26.17
2018-07-12T13:38:55.778Z,26.07
2018-07-12T13:41:22.849Z,26.19
2018-07-12T13:43:49.867Z,26.17
2018-07-12T13:46:18.446Z,26.19
2018-07-12T13:48:45.383Z,26.16
2018-07-12T13:51:12.385Z,25.97
2018-07-12T13:53:39.216Z,25.96
2018-07-12T13:56:06.180Z,26.02
2018-07-12T13:58:33.156Z,25.89
2018-07-12T14:00:59.821Z,26.21
2018-07-12T14:03:26.736Z,25.96
2018-07-12T14:05:53.702Z,26.03
2018-07-12T14:08:20.445Z,26.10
2018-07-12T14:10:46.870Z,26.15
2018-07-12T14:13:13.371Z,26.18
2018-07-12T14:15:39.853Z,26.13
2018-07-12T14:18:06.636Z,26.13
2018-07-12T14:20:33.070Z,26.15
2018-07-12T14:23:00.285Z,26.04
2018-07-12T14:25:26.954Z,26.12
2018-07-12T14:27:53.398Z,26.12
2018-07-12T14:30:20.612Z,26.13
2018-07-12T14:32:47.035Z,26.10
2018-07-12T14:35:13.702Z,26.03
2018-07-12T14:37:40.272Z,26.09
2018-07-12T14:40:06.669Z,26.04
2018-07-12T14:42:33.690Z,25.98
2018-07-12T14:45:00.267Z,25.99
2018-07-12T14:47:27.056Z,25.99
2018-07-12T14:49:53.546Z,25.95
2018-07-12T14:52:20.262Z,25.86
2018-07-12T14:54:47.092Z,25.94
2018-07-12T14:57:14.149Z,25.97
2018-07-12T14:59:41.052Z,25.92
2018-07-12T15:02:07.664Z,25.83
2018-07-12T15:04:35.169Z,25.86
2018-07-12T15:07:01.554Z,25.83
2018-07-12T15:09:28.186Z,25.83
2018-07-12T15:11:54.504Z,25.87
2018-07-12T15:14:20.858Z,25.79
2018-07-12T15:16:47.432Z,25.80
2018-07-12T15:19:14.514Z,25.79
2018-07-12T15:21:40.996Z,25.76
2018-07-12T15:24:07.476Z,25.81
2018-07-12T15:26:34.042Z,25.82
2018-07-12T15:29:00.635Z,25.82
2018-07-12T15:31:27.617Z,25.76
2018-07-12T15:33:54.085Z,25.69
2018-07-12T15:36:20.655Z,25.73
2018-07-12T15:38:47.169Z,25.68
2018-07-12T15:41:13.510Z,25.76
2018-07-12T15:43:40.140Z,25.65
2018-07-12T15:46:06.863Z,25.68
2018-07-12T15:48:33.249Z,25.65
2018-07-12T15:50:59.744Z,25.63
2018-07-12T15:53:26.136Z,25.67
2018-07-12T15:55:52.548Z,25.61
2018-07-12T15:58:19.227Z,25.65
2018-07-12T16:00:45.716Z,25.59
2018-07-12T16:03:12.160Z,25.54
2018-07-12T16:05:38.566Z,25.53
2018-07-12T16:08:05.304Z,25.56
2018-07-12T16:10:32.065Z,25.45
2018-07-12T16:12:58.502Z,25.49
2018-07-12T16:15:25.134Z,25.48
2018-07-12T16:17:51.603Z,25.47
2018-07-12T16:20:18.188Z,25.39
2018-07-12T16:22:44.818Z,25.44
2018-07-12T16:25:11.171Z,25.39
2018-07-12T16:27:37.731Z,25.38
2018-07-12T16:30:04.253Z,25.38
2018-07-12T16:32:30.872Z,25.33
2018-07-12T16:34:57.201Z,25.37
2018-07-12T16:37:23.668Z,25.35
2018-07-12T16:39:50.077Z,25.31
2018-07-12T16:42:16.670Z,25.31
2018-07-12T16:44:43.046Z,25.28
2018-07-12T16:47:09.641Z,25.25
2018-07-12T16:49:36.029Z,25.25
2018-07-12T16:52:02.389Z,25.25
2018-07-12T16:54:28.942Z,25.20
2018-07-12T16:56:55.500Z,25.21
2018-07-12T16:59:22.236Z,25.19
2018-07-12T17:01:49.073Z,25.19
2018-07-12T17:04:15.449Z,25.17
2018-07-12T17:06:42.047Z,25.22
2018-07-12T17:09:08.376Z,25.31
2018-07-12T17:11:35.170Z,25.35
2018-07-12T17:14:01.708Z,25.39
2018-07-12T17:19:01.160Z,25.54
2018-07-12T17:21:27.540Z,25.61
2018-07-12T17:23:54.035Z,25.65
2018-07-12T17:26:20.383Z,25.68
2018-07-12T17:28:46.729Z,25.66
2018-07-12T17:31:13.459Z,25.71
2018-07-12T17:33:39.989Z,25.69
2018-07-12T17:36:06.591Z,25.68
2018-07-12T17:38:32.929Z,25.67
2018-07-12T17:40:59.287Z,25.69
2018-07-12T17:43:25.680Z,25.71
2018-07-12T17:45:52.343Z,25.71
2018-07-12T17:48:18.734Z,25.69
2018-07-12T17:50:45.112Z,25.71
2018-07-12T17:53:11.431Z,25.71
2018-07-12T17:55:38.240Z,25.69
2018-07-12T17:58:04.594Z,25.71
2018-07-12T18:00:31.347Z,25.71
2018-07-12T18:02:57.875Z,25.68
2018-07-12T18:05:24.526Z,25.68
2018-07-12T18:07:51.161Z,25.67
2018-07-12T18:10:17.923Z,25.71
2018-07-12T18:12:44.656Z,25.68
2018-07-12T18:15:11.096Z,25.72
2018-07-12T18:17:37.474Z,25.68
2018-07-12T18:20:03.892Z,25.71
2018-07-12T18:22:30.745Z,25.77
2018-07-12T18:24:57.170Z,25.76
2018-07-12T18:27:23.608Z,25.74
2018-07-12T18:29:49.990Z,25.67
2018-07-12T18:32:16.379Z,25.73
2018-07-12T18:34:42.978Z,25.73
2018-07-12T18:37:09.694Z,25.73
2018-07-12T18:39:36.571Z,25.72
2018-07-12T18:42:03.004Z,25.73
2018-07-12T18:44:29.360Z,25.71
2018-07-12T18:46:55.752Z,25.71
2018-07-12T18:49:22.159Z,25.64
2018-07-12T18:51:49.053Z,25.66
2018-07-12T18:54:15.712Z,25.69
2018-07-12T18:56:42.065Z,25.67
2018-07-12T18:59:08.709Z,25.67
2018-07-12T19:01:35.071Z,25.58
2018-07-12T19:04:01.503Z,25.49
2018-07-12T19:06:28.135Z,25.58
2018-07-12T19:08:54.741Z,25.54
2018-07-12T19:11:21.319Z,25.52
2018-07-12T19:16:21.048Z,25.50
2018-07-12T19:18:47.446Z,25.34
2018-07-12T19:21:13.943Z,25.38
2018-07-12T19:23:40.789Z,25.39
2018-07-12T19:26:07.126Z,25.48
2018-07-12T19:28:33.671Z,25.47
2018-07-12T19:31:00.000Z,25.50
2018-07-12T19:33:26.343Z,25.44
2018-07-12T19:35:53.135Z,25.44
2018-07-12T19:38:20.070Z,25.40
2018-07-12T19:40:49.556Z,25.42
2018-07-12T19:43:15.989Z,25.36
2018-07-12T19:45:42.358Z,25.36
2018-07-12T19:48:08.711Z,25.38
2018-07-12T19:50:36.092Z,25.34
2018-07-12T19:53:02.762Z,25.33
2018-07-12T19:55:29.270Z,25.30
2018-07-12T19:57:56.576Z,25.33
2018-07-12T20:00:22.939Z,25.30
2018-07-12T20:02:52.831Z,25.25
2018-07-12T20:05:19.360Z,25.25
2018-07-12T20:07:45.759Z,25.22
2018-07-12T20:10:12.543Z,25.21
2018-07-12T20:12:38.953Z,25.21
2018-07-12T20:15:05.697Z,25.22
2018-07-12T20:17:32.043Z,25.19
2018-07-12T20:19:58.429Z,25.15
2018-07-12T20:22:25.536Z,25.15
2018-07-12T20:24:51.948Z,25.17
2018-07-12T20:27:18.984Z,25.14
2018-07-12T20:29:45.375Z,25.12
2018-07-12T20:32:11.690Z,25.10
2018-07-12T20:34:39.640Z,25.10
2018-07-12T20:37:06.133Z,25.09
2018-07-12T20:39:32.852Z,25.07
2018-07-12T20:41:59.268Z,25.06
2018-07-12T20:44:25.616Z,25.04
2018-07-12T20:46:52.389Z,25.06
2018-07-12T20:49:19.090Z,25.04
2018-07-12T20:51:45.562Z,25.02
2018-07-12T20:54:11.931Z,25.02
2018-07-12T20:56:38.297Z,25.02
2018-07-12T20:59:05.232Z,24.99
2018-07-12T21:01:31.626Z,24.99
2018-07-12T21:03:58.440Z,24.99
2018-07-12T21:06:24.953Z,24.98
2018-07-12T21:08:52.300Z,24.92
2018-07-12T21:11:18.870Z,24.97
2018-07-12T21:13:45.288Z,24.93
2018-07-12T21:16:12.566Z,24.91
2018-07-12T21:18:39.689Z,24.92
2018-07-12T21:21:06.373Z,24.89
2018-07-12T21:23:33.021Z,24.87
2018-07-12T21:25:59.415Z,24.90
2018-07-12T21:28:25.762Z,24.88
2018-07-12T21:30:56.283Z,24.86
2018-07-12T21:33:22.960Z,24.85
2018-07-12T21:35:52.514Z,24.87
2018-07-12T21:38:19.017Z,24.82
2018-07-12T21:40:45.638Z,24.83
2018-07-12T21:43:12.054Z,24.80
2018-07-12T21:45:38.769Z,24.80
2018-07-12T21:48:05.329Z,24.80
2018-07-12T21:50:32.030Z,24.78
2018-07-12T21:52:58.400Z,24.77
2018-07-12T21:55:25.347Z,24.79
2018-07-12T21:57:52.828Z,24.73
2018-07-12T22:00:20.802Z,24.74
2018-07-12T22:02:47.343Z,24.72
2018-07-12T22:05:14.590Z,24.70
2018-07-12T22:07:40.922Z,24.74
2018-07-12T22:10:07.738Z,24.69
2018-07-12T22:12:34.379Z,24.68
2018-07-12T22:15:00.743Z,24.69
2018-07-12T22:17:27.357Z,24.63
2018-07-12T22:19:54.168Z,24.68
2018-07-12T22:22:21.764Z,24.64
2018-07-12T22:24:48.115Z,24.64
2018-07-12T22:27:14.707Z,24.63
2018-07-12T22:29:41.118Z,24.63
2018-07-12T22:32:07.942Z,24.63
2018-07-12T22:34:34.266Z,24.60
2018-07-12T22:37:00.706Z,24.56
2018-07-12T22:39:27.200Z,24.56
2018-07-12T22:41:54.477Z,24.57
2018-07-12T22:44:20.914Z,24.55
2018-07-12T22:46:47.250Z,24.53
2018-07-12T22:49:14.920Z,24.53
2018-07-12T22:51:41.359Z,24.53
2018-07-12T22:54:08.331Z,24.51
2018-07-12T22:56:35.035Z,24.43
2018-07-12T22:59:01.632Z,24.47
2018-07-12T23:01:28.118Z,24.48
2018-07-12T23:03:54.783Z,24.48
2018-07-12T23:06:22.060Z,24.45
2018-07-12T23:08:50.655Z,24.45
2018-07-12T23:11:16.976Z,24.42
2018-07-12T23:13:44.547Z,24.36
2018-07-12T23:16:11.273Z,24.40
2018-07-12T23:18:38.962Z,24.29
2018-07-12T23:21:05.424Z,24.36
2018-07-12T23:23:31.839Z,24.38
2018-07-12T23:25:58.174Z,24.33
2018-07-12T23:28:24.507Z,24.35
2018-07-12T23:30:53.504Z,24.38
2018-07-12T23:35:52.721Z,24.34
2018-07-12T23:38:22.127Z,24.28
2018-07-12T23:40:48.522Z,24.31
2018-07-12T23:43:15.857Z,24.31
2018-07-12T23:45:42.240Z,24.31
2018-07-12T23:48:08.760Z,24.29
2018-07-12T23:50:35.151Z,24.28
2018-07-12T23:53:02.102Z,24.25
2018-07-12T23:55:28.446Z,24.27
2018-07-12T23:57:55.063Z,24.24
